Terminal Aerodrome Forecast
Issued by NWS

Home | Current Version | Previous Version | Text Only | Print | Product List | Glossary On
Versions: 1 2 3 4 5 6 7 8 9 10 11 12 13 14 15 16
000
FTUS45 KABQ 251700
TAFSAF
TAF
KSAF 251740Z 2518/2618 24015G23KT P6SM BKN050
     FM252100 25015G23KT P6SM VCSH OVC050
     FM260400 29005KT P6SM SCT070
     FM260900 36008KT P6SM BKN050
     FM261300 17010KT 6SM -RA OVC030=

USA.gov is the U.S. government's official web portal to all federal, state and local government web resources and services.